sensor_id;sensor_type;location;lat;lon;timestamp;temperature;humidity
19483;DHT22;9882;51.166;6.992;2023-07-29T00:00:29;20.60;99.90
19483;DHT22;9882;51.166;6.992;2023-07-29T00:02:58;20.70;99.90
19483;DHT22;9882;51.166;6.992;2023-07-29T00:34:17;20.60;99.90
19483;DHT22;9882;51.166;6.992;2023-07-29T00:36:47;20.60;99.90
19483;DHT22;9882;51.166;6.992;2023-07-29T00:39:19;20.60;99.90
19483;DHT22;9882;51.166;6.992;2023-07-29T00:41:49;20.50;99.90
19483;DHT22;9882;51.166;6.992;2023-07-29T00:44:24;20.60;99.90
19483;DHT22;9882;51.166;6.992;2023-07-29T00:47:46;20.50;99.90
19483;DHT22;9882;51.166;6.992;2023-07-29T00:51:07;20.70;99.90
19483;DHT22;9882;51.166;6.992;2023-07-29T00:53:57;20.60;99.90
19483;DHT22;9882;51.166;6.992;2023-07-29T00:57:45;20.70;99.90
19483;DHT22;9882;51.166;6.992;2023-07-29T01:01:09;20.60;99.90
19483;DHT22;9882;51.166;6.992;2023-07-29T01:04:04;20.50;99.90
19483;DHT22;9882;51.166;6.992;2023-07-29T01:06:49;20.50;99.90
19483;DHT22;9882;51.166;6.992;2023-07-29T01:09:30;20.50;99.90
19483;DHT22;9882;51.166;6.992;2023-07-29T01:12:26;20.50;99.90
19483;DHT22;9882;51.166;6.992;2023-07-29T01:16:04;20.40;99.90
19483;DHT22;9882;51.166;6.992;2023-07-29T01:22:46;20.20;99.90
19483;DHT22;9882;51.166;6.992;2023-07-29T01:25:21;20.40;99.90
19483;DHT22;9882;51.166;6.992;2023-07-29T01:27:53;20.40;99.90
19483;DHT22;9882;51.166;6.992;2023-07-29T01:30:30;20.40;99.90
19483;DHT22;9882;51.166;6.992;2023-07-29T01:34:01;20.30;99.90
19483;DHT22;9882;51.166;6.992;2023-07-29T01:36:50;20.40;99.90
19483;DHT22;9882;51.166;6.992;2023-07-29T01:40:08;20.20;99.90
19483;DHT22;9882;51.166;6.992;2023-07-29T01:43:08;20.30;99.90
19483;DHT22;9882;51.166;6.992;2023-07-29T01:45:43;20.30;99.90
19483;DHT22;9882;51.166;6.992;2023-07-29T01:48:24;20.30;99.90
19483;DHT22;9882;51.166;6.992;2023-07-29T01:51:04;20.40;99.90
19483;DHT22;9882;51.166;6.992;2023-07-29T01:53:46;20.30;99.90
19483;DHT22;9882;51.166;6.992;2023-07-29T01:56:24;20.30;99.90
19483;DHT22;9882;51.166;6.992;2023-07-29T01:59:13;20.30;99.90
19483;DHT22;9882;51.166;6.992;2023-07-29T02:01:49;20.30;99.90
19483;DHT22;9882;51.166;6.992;2023-07-29T02:04:19;20.40;99.90
19483;DHT22;9882;51.166;6.992;2023-07-29T02:06:50;20.40;99.90
19483;DHT22;9882;51.166;6.992;2023-07-29T02:09:20;20.50;99.90
19483;DHT22;9882;51.166;6.992;2023-07-29T02:11:56;20.50;99.90
19483;DHT22;9882;51.166;6.992;2023-07-29T02:14:53;20.50;99.90
19483;DHT22;9882;51.166;6.992;2023-07-29T02:17:32;20.50;99.90
19483;DHT22;9882;51.166;6.992;2023-07-29T02:20:05;20.50;99.90
19483;DHT22;9882;51.166;6.992;2023-07-29T02:22:35;20.50;99.90
19483;DHT22;9882;51.166;6.992;2023-07-29T02:25:05;20.40;99.90
19483;DHT22;9882;51.166;6.992;2023-07-29T02:27:34;20.40;99.90
19483;DHT22;9882;51.166;6.992;2023-07-29T02:30:06;20.40;99.90
19483;DHT22;9882;51.166;6.992;2023-07-29T02:32:37;20.40;99.90
19483;DHT22;9882;51.166;6.992;2023-07-29T02:35:06;20.40;99.90
19483;DHT22;9882;51.166;6.992;2023-07-29T02:37:35;20.40;99.90
19483;DHT22;9882;51.166;6.992;2023-07-29T02:40:05;20.40;99.90
19483;DHT22;9882;51.166;6.992;2023-07-29T02:42:34;20.30;99.90
19483;DHT22;9882;51.166;6.992;2023-07-29T02:45:06;20.30;99.90
19483;DHT22;9882;51.166;6.992;2023-07-29T02:47:38;20.40;99.90
19483;DHT22;9882;51.166;6.992;2023-07-29T02:50:08;20.30;99.90
19483;DHT22;9882;51.166;6.992;2023-07-29T02:52:37;20.20;99.90
19483;DHT22;9882;51.166;6.992;2023-07-29T02:55:06;20.10;99.90
19483;DHT22;9882;51.166;6.992;2023-07-29T02:57:37;20.20;99.90
19483;DHT22;9882;51.166;6.992;2023-07-29T03:00:12;20.30;99.90
19483;DHT22;9882;51.166;6.992;2023-07-29T03:02:46;20.30;99.90
19483;DHT22;9882;51.166;6.992;2023-07-29T03:05:16;20.30;99.90
19483;DHT22;9882;51.166;6.992;2023-07-29T03:07:46;20.30;99.90
19483;DHT22;9882;51.166;6.992;2023-07-29T03:10:18;20.20;99.90
19483;DHT22;9882;51.166;6.992;2023-07-29T03:12:48;20.20;99.90
19483;DHT22;9882;51.166;6.992;2023-07-29T03:15:18;20.10;99.90
19483;DHT22;9882;51.166;6.992;2023-07-29T03:17:48;20.10;99.90
19483;DHT22;9882;51.166;6.992;2023-07-29T03:20:17;20.10;99.90
19483;DHT22;9882;51.166;6.992;2023-07-29T03:22:46;20.20;99.90
19483;DHT22;9882;51.166;6.992;2023-07-29T03:25:15;20.20;99.90
19483;DHT22;9882;51.166;6.992;2023-07-29T03:27:44;20.20;99.90
19483;DHT22;9882;51.166;6.992;2023-07-29T03:30:21;20.00;99.90
19483;DHT22;9882;51.166;6.992;2023-07-29T03:32:52;20.00;99.90
19483;DHT22;9882;51.166;6.992;2023-07-29T03:35:21;19.90;99.90
19483;DHT22;9882;51.166;6.992;2023-07-29T03:37:49;20.00;99.90
19483;DHT22;9882;51.166;6.992;2023-07-29T03:40:19;20.00;99.90
19483;DHT22;9882;51.166;6.992;2023-07-29T03:42:48;20.10;99.90
19483;DHT22;9882;51.166;6.992;2023-07-29T03:45:16;20.10;99.90
19483;DHT22;9882;51.166;6.992;2023-07-29T03:47:47;20.10;99.90
19483;DHT22;9882;51.166;6.992;2023-07-29T03:50:16;20.10;99.90
19483;DHT22;9882;51.166;6.992;2023-07-29T03:52:45;20.20;99.90
19483;DHT22;9882;51.166;6.992;2023-07-29T03:55:14;20.20;99.90
19483;DHT22;9882;51.166;6.992;2023-07-29T03:57:43;20.20;99.90
19483;DHT22;9882;51.166;6.992;2023-07-29T04:00:12;20.20;99.90
19483;DHT22;9882;51.166;6.992;2023-07-29T04:02:41;20.10;99.90
19483;DHT22;9882;51.166;6.992;2023-07-29T04:05:15;20.20;99.90
19483;DHT22;9882;51.166;6.992;2023-07-29T04:07:44;20.30;99.90
19483;DHT22;9882;51.166;6.992;2023-07-29T04:10:14;20.30;99.90
19483;DHT22;9882;51.166;6.992;2023-07-29T04:12:43;20.20;99.90
19483;DHT22;9882;51.166;6.992;2023-07-29T04:15:12;20.30;99.90
19483;DHT22;9882;51.166;6.992;2023-07-29T04:17:42;20.20;99.90
19483;DHT22;9882;51.166;6.992;2023-07-29T04:20:11;20.20;99.90
19483;DHT22;9882;51.166;6.992;2023-07-29T04:22:42;20.30;99.90
19483;DHT22;9882;51.166;6.992;2023-07-29T04:25:11;20.30;99.90
19483;DHT22;9882;51.166;6.992;2023-07-29T04:27:41;20.20;99.90
19483;DHT22;9882;51.166;6.992;2023-07-29T04:30:11;20.00;99.90
19483;DHT22;9882;51.166;6.992;2023-07-29T04:32:44;19.90;99.90
19483;DHT22;9882;51.166;6.992;2023-07-29T04:35:26;19.90;99.90
19483;DHT22;9882;51.166;6.992;2023-07-29T04:37:59;19.80;99.90
19483;DHT22;9882;51.166;6.992;2023-07-29T04:40:28;19.80;99.90
19483;DHT22;9882;51.166;6.992;2023-07-29T04:43:00;19.50;99.90
19483;DHT22;9882;51.166;6.992;2023-07-29T04:45:29;19.50;99.90
19483;DHT22;9882;51.166;6.992;2023-07-29T04:48:00;19.50;99.90
19483;DHT22;9882;51.166;6.992;2023-07-29T04:50:29;19.50;99.90
19483;DHT22;9882;51.166;6.992;2023-07-29T04:53:00;19.50;99.90
19483;DHT22;9882;51.166;6.992;2023-07-29T04:55:29;19.40;99.90
19483;DHT22;9882;51.166;6.992;2023-07-29T04:57:58;19.40;99.90
19483;DHT22;9882;51.166;6.992;2023-07-29T05:00:28;19.40;99.90
19483;DHT22;9882;51.166;6.992;2023-07-29T05:02:57;19.50;99.90
19483;DHT22;9882;51.166;6.992;2023-07-29T05:05:27;19.60;99.90
19483;DHT22;9882;51.166;6.992;2023-07-29T05:08:05;19.50;99.90
19483;DHT22;9882;51.166;6.992;2023-07-29T05:10:36;19.50;99.90
19483;DHT22;9882;51.166;6.992;2023-07-29T05:13:06;19.50;99.90
19483;DHT22;9882;51.166;6.992;2023-07-29T05:15:36;19.50;99.90
19483;DHT22;9882;51.166;6.992;2023-07-29T05:18:06;19.60;99.90
19483;DHT22;9882;51.166;6.992;2023-07-29T05:20:39;19.60;99.90
19483;DHT22;9882;51.166;6.992;2023-07-29T05:23:11;19.60;99.90
19483;DHT22;9882;51.166;6.992;2023-07-29T05:25:44;19.70;99.90
19483;DHT22;9882;51.166;6.992;2023-07-29T05:28:19;19.70;99.90
19483;DHT22;9882;51.166;6.992;2023-07-29T05:30:48;19.70;99.90
19483;DHT22;9882;51.166;6.992;2023-07-29T05:33:20;19.70;99.90
19483;DHT22;9882;51.166;6.992;2023-07-29T05:36:07;19.50;99.90
19483;DHT22;9882;51.166;6.992;2023-07-29T05:39:13;19.30;99.90
19483;DHT22;9882;51.166;6.992;2023-07-29T05:41:42;19.30;99.90
19483;DHT22;9882;51.166;6.992;2023-07-29T05:44:12;19.40;99.90
19483;DHT22;9882;51.166;6.992;2023-07-29T05:46:42;19.50;99.90
19483;DHT22;9882;51.166;6.992;2023-07-29T05:49:12;19.50;99.90
19483;DHT22;9882;51.166;6.992;2023-07-29T05:51:44;19.40;99.90
19483;DHT22;9882;51.166;6.992;2023-07-29T05:54:22;19.60;99.90
19483;DHT22;9882;51.166;6.992;2023-07-29T05:56:56;19.70;99.90
19483;DHT22;9882;51.166;6.992;2023-07-29T05:59:39;19.60;99.90
19483;DHT22;9882;51.166;6.992;2023-07-29T06:02:18;19.60;99.90
19483;DHT22;9882;51.166;6.992;2023-07-29T06:04:49;19.60;99.90
19483;DHT22;9882;51.166;6.992;2023-07-29T06:19:36;19.30;99.90
19483;DHT22;9882;51.166;6.992;2023-07-29T06:22:05;19.30;99.90
19483;DHT22;9882;51.166;6.992;2023-07-29T06:24:34;19.10;99.90
19483;DHT22;9882;51.166;6.992;2023-07-29T06:27:02;19.20;99.90
19483;DHT22;9882;51.166;6.992;2023-07-29T06:29:31;19.10;99.90
19483;DHT22;9882;51.166;6.992;2023-07-29T06:32:00;19.20;99.90
19483;DHT22;9882;51.166;6.992;2023-07-29T06:34:28;19.00;99.90
19483;DHT22;9882;51.166;6.992;2023-07-29T06:36:58;18.90;99.90
19483;DHT22;9882;51.166;6.992;2023-07-29T06:39:27;19.00;99.90
19483;DHT22;9882;51.166;6.992;2023-07-29T06:41:56;18.80;99.90
19483;DHT22;9882;51.166;6.992;2023-07-29T06:44:24;18.60;99.90
19483;DHT22;9882;51.166;6.992;2023-07-29T06:46:53;18.70;99.90
19483;DHT22;9882;51.166;6.992;2023-07-29T06:49:21;18.50;99.90
19483;DHT22;9882;51.166;6.992;2023-07-29T06:51:50;18.50;99.90
19483;DHT22;9882;51.166;6.992;2023-07-29T06:54:24;18.60;99.90
19483;DHT22;9882;51.166;6.992;2023-07-29T06:56:52;18.70;99.90
19483;DHT22;9882;51.166;6.992;2023-07-29T06:59:21;18.70;99.90
19483;DHT22;9882;51.166;6.992;2023-07-29T07:01:51;18.90;99.90
19483;DHT22;9882;51.166;6.992;2023-07-29T07:04:20;19.10;99.90
19483;DHT22;9882;51.166;6.992;2023-07-29T07:06:48;19.10;99.90
19483;DHT22;9882;51.166;6.992;2023-07-29T07:09:17;19.30;99.90
19483;DHT22;9882;51.166;6.992;2023-07-29T07:11:47;19.30;99.90
19483;DHT22;9882;51.166;6.992;2023-07-29T07:14:15;19.50;99.90
19483;DHT22;9882;51.166;6.992;2023-07-29T07:16:44;19.00;99.90
19483;DHT22;9882;51.166;6.992;2023-07-29T07:19:12;19.20;99.90
19483;DHT22;9882;51.166;6.992;2023-07-29T07:21:41;19.20;99.90
19483;DHT22;9882;51.166;6.992;2023-07-29T07:24:10;19.30;99.90
19483;DHT22;9882;51.166;6.992;2023-07-29T07:26:38;19.30;99.90
19483;DHT22;9882;51.166;6.992;2023-07-29T07:29:08;19.20;99.90
19483;DHT22;9882;51.166;6.992;2023-07-29T07:31:37;19.50;99.90
19483;DHT22;9882;51.166;6.992;2023-07-29T07:34:05;19.20;99.90
19483;DHT22;9882;51.166;6.992;2023-07-29T07:36:34;19.00;99.90
19483;DHT22;9882;51.166;6.992;2023-07-29T07:39:02;18.90;99.90
19483;DHT22;9882;51.166;6.992;2023-07-29T07:41:31;19.20;99.90
19483;DHT22;9882;51.166;6.992;2023-07-29T07:43:59;19.20;99.90
19483;DHT22;9882;51.166;6.992;2023-07-29T07:46:29;19.20;99.90
19483;DHT22;9882;51.166;6.992;2023-07-29T07:48:58;19.30;99.90
19483;DHT22;9882;51.166;6.992;2023-07-29T07:51:26;19.30;99.90
19483;DHT22;9882;51.166;6.992;2023-07-29T07:53:55;19.30;99.90
19483;DHT22;9882;51.166;6.992;2023-07-29T07:56:23;19.10;99.90
19483;DHT22;9882;51.166;6.992;2023-07-29T07:58:52;19.00;99.90
19483;DHT22;9882;51.166;6.992;2023-07-29T08:01:20;18.90;99.90
19483;DHT22;9882;51.166;6.992;2023-07-29T08:03:50;19.00;99.90
19483;DHT22;9882;51.166;6.992;2023-07-29T08:06:19;18.90;99.90
19483;DHT22;9882;51.166;6.992;2023-07-29T08:08:48;19.00;99.90
19483;DHT22;9882;51.166;6.992;2023-07-29T08:11:17;18.90;99.90
19483;DHT22;9882;51.166;6.992;2023-07-29T08:13:45;19.00;99.90
19483;DHT22;9882;51.166;6.992;2023-07-29T08:16:14;18.90;99.90
19483;DHT22;9882;51.166;6.992;2023-07-29T08:18:42;19.20;99.90
19483;DHT22;9882;51.166;6.992;2023-07-29T08:21:13;19.00;99.90
19483;DHT22;9882;51.166;6.992;2023-07-29T08:23:41;19.10;99.90
19483;DHT22;9882;51.166;6.992;2023-07-29T08:26:10;19.10;99.90
19483;DHT22;9882;51.166;6.992;2023-07-29T08:28:39;19.00;99.90
19483;DHT22;9882;51.166;6.992;2023-07-29T08:31:08;19.00;99.90
19483;DHT22;9882;51.166;6.992;2023-07-29T08:33:36;18.90;99.90
19483;DHT22;9882;51.166;6.992;2023-07-29T08:36:05;19.20;99.90
19483;DHT22;9882;51.166;6.992;2023-07-29T08:38:35;19.00;99.90
19483;DHT22;9882;51.166;6.992;2023-07-29T08:41:09;19.20;99.90
19483;DHT22;9882;51.166;6.992;2023-07-29T08:43:44;19.40;99.90
19483;DHT22;9882;51.166;6.992;2023-07-29T08:46:16;19.40;99.90
19483;DHT22;9882;51.166;6.992;2023-07-29T08:48:46;19.70;99.90
19483;DHT22;9882;51.166;6.992;2023-07-29T08:51:15;19.70;99.90
19483;DHT22;9882;51.166;6.992;2023-07-29T08:53:47;19.90;99.90
19483;DHT22;9882;51.166;6.992;2023-07-29T08:56:16;20.10;99.90
19483;DHT22;9882;51.166;6.992;2023-07-29T08:58:45;19.90;99.90
19483;DHT22;9882;51.166;6.992;2023-07-29T09:01:15;19.90;99.90
19483;DHT22;9882;51.166;6.992;2023-07-29T09:03:43;19.70;99.90
19483;DHT22;9882;51.166;6.992;2023-07-29T09:06:14;19.70;99.90
19483;DHT22;9882;51.166;6.992;2023-07-29T09:08:43;19.60;99.90
19483;DHT22;9882;51.166;6.992;2023-07-29T09:11:15;19.70;99.90
19483;DHT22;9882;51.166;6.992;2023-07-29T09:13:44;19.70;99.90
19483;DHT22;9882;51.166;6.992;2023-07-29T09:16:13;19.90;99.90
19483;DHT22;9882;51.166;6.992;2023-07-29T09:18:42;20.00;99.90
19483;DHT22;9882;51.166;6.992;2023-07-29T09:21:10;20.00;99.90
19483;DHT22;9882;51.166;6.992;2023-07-29T09:23:40;19.90;99.90
19483;DHT22;9882;51.166;6.992;2023-07-29T09:26:09;19.90;99.90
19483;DHT22;9882;51.166;6.992;2023-07-29T09:28:39;19.90;99.90
19483;DHT22;9882;51.166;6.992;2023-07-29T09:31:19;20.00;99.90
19483;DHT22;9882;51.166;6.992;2023-07-29T09:33:47;20.00;99.90
19483;DHT22;9882;51.166;6.992;2023-07-29T09:36:16;20.20;99.90
19483;DHT22;9882;51.166;6.992;2023-07-29T09:38:45;20.30;99.90
19483;DHT22;9882;51.166;6.992;2023-07-29T09:41:15;20.40;99.90
19483;DHT22;9882;51.166;6.992;2023-07-29T09:43:45;20.20;99.90
19483;DHT22;9882;51.166;6.992;2023-07-29T09:46:13;20.30;99.90
19483;DHT22;9882;51.166;6.992;2023-07-29T09:48:42;20.50;99.90
19483;DHT22;9882;51.166;6.992;2023-07-29T09:51:14;20.90;99.90
19483;DHT22;9882;51.166;6.992;2023-07-29T09:53:43;20.70;99.90
19483;DHT22;9882;51.166;6.992;2023-07-29T09:56:13;20.60;99.90
19483;DHT22;9882;51.166;6.992;2023-07-29T09:58:44;20.50;99.90
19483;DHT22;9882;51.166;6.992;2023-07-29T10:01:14;20.40;99.90
19483;DHT22;9882;51.166;6.992;2023-07-29T10:03:43;20.40;99.90
19483;DHT22;9882;51.166;6.992;2023-07-29T10:06:14;20.20;99.90
19483;DHT22;9882;51.166;6.992;2023-07-29T10:08:43;20.40;99.90
19483;DHT22;9882;51.166;6.992;2023-07-29T10:11:12;20.30;99.90
19483;DHT22;9882;51.166;6.992;2023-07-29T10:13:40;20.40;99.90
19483;DHT22;9882;51.166;6.992;2023-07-29T10:16:12;20.80;99.90
19483;DHT22;9882;51.166;6.992;2023-07-29T10:18:41;20.50;99.90
19483;DHT22;9882;51.166;6.992;2023-07-29T10:21:11;20.60;99.90
19483;DHT22;9882;51.166;6.992;2023-07-29T10:23:44;20.90;99.90
19483;DHT22;9882;51.166;6.992;2023-07-29T10:26:16;20.90;99.90
19483;DHT22;9882;51.166;6.992;2023-07-29T10:28:48;20.80;99.90
19483;DHT22;9882;51.166;6.992;2023-07-29T10:31:22;21.00;99.90
19483;DHT22;9882;51.166;6.992;2023-07-29T10:33:51;20.90;99.90
19483;DHT22;9882;51.166;6.992;2023-07-29T10:36:20;21.10;99.90
19483;DHT22;9882;51.166;6.992;2023-07-29T10:38:49;21.30;99.90
19483;DHT22;9882;51.166;6.992;2023-07-29T10:41:18;21.00;99.90
19483;DHT22;9882;51.166;6.992;2023-07-29T10:43:46;20.90;99.90
19483;DHT22;9882;51.166;6.992;2023-07-29T10:46:17;21.00;99.90
19483;DHT22;9882;51.166;6.992;2023-07-29T10:48:54;21.00;99.90
19483;DHT22;9882;51.166;6.992;2023-07-29T10:51:28;21.00;99.90
19483;DHT22;9882;51.166;6.992;2023-07-29T10:54:02;21.00;99.90
19483;DHT22;9882;51.166;6.992;2023-07-29T10:56:32;21.00;99.90
19483;DHT22;9882;51.166;6.992;2023-07-29T10:59:31;21.00;99.90
19483;DHT22;9882;51.166;6.992;2023-07-29T11:02:00;21.20;99.90
19483;DHT22;9882;51.166;6.992;2023-07-29T11:04:31;21.30;99.90
19483;DHT22;9882;51.166;6.992;2023-07-29T11:07:26;21.50;99.90
19483;DHT22;9882;51.166;6.992;2023-07-29T11:10:00;21.40;99.90
19483;DHT22;9882;51.166;6.992;2023-07-29T11:12:43;21.70;99.90
19483;DHT22;9882;51.166;6.992;2023-07-29T11:15:18;21.80;99.90
19483;DHT22;9882;51.166;6.992;2023-07-29T11:17:48;21.90;99.90
19483;DHT22;9882;51.166;6.992;2023-07-29T11:20:20;21.90;99.90
19483;DHT22;9882;51.166;6.992;2023-07-29T11:22:49;21.90;99.90
19483;DHT22;9882;51.166;6.992;2023-07-29T11:25:18;21.80;99.90
19483;DHT22;9882;51.166;6.992;2023-07-29T11:27:47;21.90;99.90
19483;DHT22;9882;51.166;6.992;2023-07-29T11:30:16;21.90;99.90
19483;DHT22;9882;51.166;6.992;2023-07-29T11:32:45;22.00;99.90
19483;DHT22;9882;51.166;6.992;2023-07-29T11:35:15;22.10;99.90
19483;DHT22;9882;51.166;6.992;2023-07-29T11:37:47;21.90;99.90
19483;DHT22;9882;51.166;6.992;2023-07-29T11:40:17;21.50;99.90
19483;DHT22;9882;51.166;6.992;2023-07-29T11:42:47;21.60;99.90
19483;DHT22;9882;51.166;6.992;2023-07-29T11:45:18;21.60;99.90
19483;DHT22;9882;51.166;6.992;2023-07-29T11:47:47;21.60;99.90
19483;DHT22;9882;51.166;6.992;2023-07-29T11:50:15;21.80;99.90
19483;DHT22;9882;51.166;6.992;2023-07-29T11:52:46;21.90;99.90
19483;DHT22;9882;51.166;6.992;2023-07-29T11:55:15;22.10;99.90
19483;DHT22;9882;51.166;6.992;2023-07-29T11:57:44;22.20;99.90
19483;DHT22;9882;51.166;6.992;2023-07-29T12:00:12;22.20;99.90
19483;DHT22;9882;51.166;6.992;2023-07-29T12:02:45;22.40;99.90
19483;DHT22;9882;51.166;6.992;2023-07-29T12:05:14;22.20;99.90
19483;DHT22;9882;51.166;6.992;2023-07-29T12:07:44;22.40;99.90
19483;DHT22;9882;51.166;6.992;2023-07-29T12:10:14;22.60;99.90
19483;DHT22;9882;51.166;6.992;2023-07-29T12:12:46;22.70;99.90
19483;DHT22;9882;51.166;6.992;2023-07-29T12:15:23;22.70;99.90
19483;DHT22;9882;51.166;6.992;2023-07-29T12:17:54;22.50;99.90
19483;DHT22;9882;51.166;6.992;2023-07-29T12:20:24;22.60;99.90
19483;DHT22;9882;51.166;6.992;2023-07-29T12:22:54;22.60;99.90
19483;DHT22;9882;51.166;6.992;2023-07-29T12:25:25;22.60;99.90
19483;DHT22;9882;51.166;6.992;2023-07-29T12:27:54;22.80;99.90
19483;DHT22;9882;51.166;6.992;2023-07-29T12:30:23;22.60;99.90
19483;DHT22;9882;51.166;6.992;2023-07-29T12:32:52;22.50;99.90
19483;DHT22;9882;51.166;6.992;2023-07-29T12:35:20;22.60;99.90
19483;DHT22;9882;51.166;6.992;2023-07-29T12:37:58;22.70;99.90
19483;DHT22;9882;51.166;6.992;2023-07-29T12:40:28;22.80;99.90
19483;DHT22;9882;51.166;6.992;2023-07-29T12:42:57;23.00;99.90
19483;DHT22;9882;51.166;6.992;2023-07-29T12:45:25;23.00;99.90
19483;DHT22;9882;51.166;6.992;2023-07-29T12:47:56;23.30;99.90
19483;DHT22;9882;51.166;6.992;2023-07-29T12:50:24;23.30;99.90
19483;DHT22;9882;51.166;6.992;2023-07-29T12:52:53;23.30;99.90
19483;DHT22;9882;51.166;6.992;2023-07-29T12:55:21;23.30;99.90
19483;DHT22;9882;51.166;6.992;2023-07-29T12:57:51;23.10;99.90
19483;DHT22;9882;51.166;6.992;2023-07-29T13:00:20;23.00;99.90
19483;DHT22;9882;51.166;6.992;2023-07-29T13:02:49;22.90;99.90
19483;DHT22;9882;51.166;6.992;2023-07-29T13:05:17;23.30;99.90
19483;DHT22;9882;51.166;6.992;2023-07-29T13:07:46;23.20;99.90
19483;DHT22;9882;51.166;6.992;2023-07-29T13:10:15;23.60;99.90
19483;DHT22;9882;51.166;6.992;2023-07-29T13:12:43;23.70;99.90
19483;DHT22;9882;51.166;6.992;2023-07-29T13:15:13;23.50;99.90
19483;DHT22;9882;51.166;6.992;2023-07-29T13:17:42;23.30;99.90
19483;DHT22;9882;51.166;6.992;2023-07-29T13:20:11;23.50;99.90
19483;DHT22;9882;51.166;6.992;2023-07-29T13:22:39;23.10;99.90
19483;DHT22;9882;51.166;6.992;2023-07-29T13:25:08;22.90;99.90
19483;DHT22;9882;51.166;6.992;2023-07-29T13:27:36;23.10;99.90
19483;DHT22;9882;51.166;6.992;2023-07-29T13:30:06;22.80;99.90
19483;DHT22;9882;51.166;6.992;2023-07-29T13:32:36;23.00;99.90
19483;DHT22;9882;51.166;6.992;2023-07-29T13:35:06;22.50;99.90
19483;DHT22;9882;51.166;6.992;2023-07-29T13:37:34;22.70;99.90
19483;DHT22;9882;51.166;6.992;2023-07-29T13:40:03;22.20;99.90
19483;DHT22;9882;51.166;6.992;2023-07-29T13:42:32;22.30;99.90
19483;DHT22;9882;51.166;6.992;2023-07-29T13:45:02;22.50;99.90
19483;DHT22;9882;51.166;6.992;2023-07-29T13:47:31;22.60;99.90
19483;DHT22;9882;51.166;6.992;2023-07-29T13:50:01;22.90;99.90
19483;DHT22;9882;51.166;6.992;2023-07-29T13:52:30;22.80;99.90
19483;DHT22;9882;51.166;6.992;2023-07-29T13:54:58;22.60;99.90
19483;DHT22;9882;51.166;6.992;2023-07-29T13:57:27;23.10;99.90
19483;DHT22;9882;51.166;6.992;2023-07-29T13:59:55;23.40;99.90
19483;DHT22;9882;51.166;6.992;2023-07-29T14:02:24;23.00;99.90
19483;DHT22;9882;51.166;6.992;2023-07-29T14:04:53;23.20;99.90
19483;DHT22;9882;51.166;6.992;2023-07-29T14:07:23;23.40;99.90
19483;DHT22;9882;51.166;6.992;2023-07-29T14:09:52;23.20;99.90
19483;DHT22;9882;51.166;6.992;2023-07-29T14:12:20;23.10;99.90
19483;DHT22;9882;51.166;6.992;2023-07-29T14:14:49;22.10;99.90
19483;DHT22;9882;51.166;6.992;2023-07-29T14:17:18;22.20;99.90
19483;DHT22;9882;51.166;6.992;2023-07-29T14:19:49;21.70;99.90
19483;DHT22;9882;51.166;6.992;2023-07-29T14:22:18;21.70;99.90
19483;DHT22;9882;51.166;6.992;2023-07-29T14:24:48;21.40;99.90
19483;DHT22;9882;51.166;6.992;2023-07-29T14:27:16;21.90;99.90
19483;DHT22;9882;51.166;6.992;2023-07-29T14:29:45;22.10;99.90
19483;DHT22;9882;51.166;6.992;2023-07-29T14:32:16;22.30;99.90
19483;DHT22;9882;51.166;6.992;2023-07-29T14:34:46;22.80;99.90
19483;DHT22;9882;51.166;6.992;2023-07-29T14:37:14;22.60;99.90
19483;DHT22;9882;51.166;6.992;2023-07-29T14:39:43;23.30;99.90
19483;DHT22;9882;51.166;6.992;2023-07-29T14:42:13;23.60;99.90
19483;DHT22;9882;51.166;6.992;2023-07-29T14:44:42;23.80;99.90
19483;DHT22;9882;51.166;6.992;2023-07-29T14:47:11;23.70;99.90
19483;DHT22;9882;51.166;6.992;2023-07-29T14:49:42;23.90;99.90
19483;DHT22;9882;51.166;6.992;2023-07-29T14:52:10;24.40;99.90
19483;DHT22;9882;51.166;6.992;2023-07-29T14:54:39;23.90;99.90
19483;DHT22;9882;51.166;6.992;2023-07-29T14:57:09;23.70;99.90
19483;DHT22;9882;51.166;6.992;2023-07-29T14:59:39;23.70;99.90
19483;DHT22;9882;51.166;6.992;2023-07-29T15:02:07;24.20;99.90
19483;DHT22;9882;51.166;6.992;2023-07-29T15:04:36;24.60;99.90
19483;DHT22;9882;51.166;6.992;2023-07-29T15:07:05;24.30;99.90
19483;DHT22;9882;51.166;6.992;2023-07-29T15:09:34;24.20;99.90
19483;DHT22;9882;51.166;6.992;2023-07-29T15:12:04;24.20;99.90
19483;DHT22;9882;51.166;6.992;2023-07-29T15:14:32;24.40;99.90
19483;DHT22;9882;51.166;6.992;2023-07-29T15:17:03;24.10;99.90
19483;DHT22;9882;51.166;6.992;2023-07-29T15:19:31;24.20;99.90
19483;DHT22;9882;51.166;6.992;2023-07-29T15:22:00;23.90;99.90
19483;DHT22;9882;51.166;6.992;2023-07-29T15:24:32;23.70;99.90
19483;DHT22;9882;51.166;6.992;2023-07-29T15:27:00;23.50;99.90
19483;DHT22;9882;51.166;6.992;2023-07-29T15:29:29;23.70;99.90
19483;DHT22;9882;51.166;6.992;2023-07-29T15:31:59;23.20;99.90
19483;DHT22;9882;51.166;6.992;2023-07-29T15:34:29;23.40;99.90
19483;DHT22;9882;51.166;6.992;2023-07-29T15:36:59;23.60;99.90
19483;DHT22;9882;51.166;6.992;2023-07-29T15:39:28;23.30;99.90
19483;DHT22;9882;51.166;6.992;2023-07-29T15:41:59;23.20;99.90
19483;DHT22;9882;51.166;6.992;2023-07-29T15:44:28;23.70;99.90
19483;DHT22;9882;51.166;6.992;2023-07-29T15:54:45;25.70;99.90
19483;DHT22;9882;51.166;6.992;2023-07-29T15:57:29;25.40;99.90
19483;DHT22;9882;51.166;6.992;2023-07-29T16:00:01;25.80;99.90
19483;DHT22;9882;51.166;6.992;2023-07-29T16:02:40;25.90;99.90
19483;DHT22;9882;51.166;6.992;2023-07-29T16:05:14;26.10;99.90
19483;DHT22;9882;51.166;6.992;2023-07-29T16:07:45;25.20;99.90
19483;DHT22;9882;51.166;6.992;2023-07-29T16:10:20;25.10;99.90
19483;DHT22;9882;51.166;6.992;2023-07-29T16:12:59;25.00;99.90
19483;DHT22;9882;51.166;6.992;2023-07-29T16:15:30;25.00;99.90
19483;DHT22;9882;51.166;6.992;2023-07-29T16:17:59;25.10;99.90
19483;DHT22;9882;51.166;6.992;2023-07-29T16:20:28;25.50;99.90
19483;DHT22;9882;51.166;6.992;2023-07-29T16:22:56;26.50;99.90
19483;DHT22;9882;51.166;6.992;2023-07-29T16:25:26;27.20;99.90
19483;DHT22;9882;51.166;6.992;2023-07-29T16:27:57;26.40;99.90
19483;DHT22;9882;51.166;6.992;2023-07-29T16:30:26;26.80;99.90
19483;DHT22;9882;51.166;6.992;2023-07-29T16:32:55;26.40;99.90
19483;DHT22;9882;51.166;6.992;2023-07-29T16:35:24;26.00;99.90
19483;DHT22;9882;51.166;6.992;2023-07-29T16:37:59;26.10;99.90
19483;DHT22;9882;51.166;6.992;2023-07-29T16:40:29;26.60;99.90
19483;DHT22;9882;51.166;6.992;2023-07-29T16:42:58;26.30;99.90
19483;DHT22;9882;51.166;6.992;2023-07-29T16:45:27;25.80;99.90
19483;DHT22;9882;51.166;6.992;2023-07-29T16:47:56;25.40;99.90
19483;DHT22;9882;51.166;6.992;2023-07-29T16:50:24;25.90;99.90
19483;DHT22;9882;51.166;6.992;2023-07-29T16:52:53;26.00;99.90
19483;DHT22;9882;51.166;6.992;2023-07-29T16:55:24;25.30;99.90
19483;DHT22;9882;51.166;6.992;2023-07-29T16:57:54;25.10;99.90
19483;DHT22;9882;51.166;6.992;2023-07-29T17:00:23;25.50;99.90
19483;DHT22;9882;51.166;6.992;2023-07-29T17:02:51;25.00;99.90
19483;DHT22;9882;51.166;6.992;2023-07-29T17:05:20;24.60;99.90
19483;DHT22;9882;51.166;6.992;2023-07-29T17:07:49;24.90;99.90